Terminal Aerodrome Forecast
Issued by NWS Flagstaff, AZ

Home | Current Version | Previous Version | Text Only | Print | Product List | Glossary On
Versions: 1 2 3 4 5 6 7 8 9 10 11 12 13 14 15 16 17 18 19 20 21 22 23 24 25 26 27
577
FTUS45 KFGZ 012010 AAB
TAFINW
TAF AMD
KINW 012010Z 0120/0218 25010KT P6SM -SHRA SCT035 OVC050
     FM012100 28011KT P6SM BKN045 BKN060
     FM020400 VRB04KT P6SM VCFG SCT035 BKN050
     FM021500 VRB04KT P6SM SCT050=

USA.gov is the U.S. government's official web portal to all federal, state and local government web resources and services.